createdAt,value
2022-08-04T00:01:22.844Z,2.17
2022-08-04T00:04:03.409Z,2.23
2022-08-04T00:06:34.904Z,1.97
2022-08-04T00:09:09.163Z,2.10
2022-08-04T00:11:38.564Z,2.10
2022-08-04T00:14:11.573Z,1.90
2022-08-04T00:16:40.750Z,2.10
2022-08-04T00:19:18.558Z,2.13
2022-08-04T00:22:04.432Z,2.10
2022-08-04T00:24:32.142Z,1.90
2022-08-04T00:27:00.067Z,2.10
2022-08-04T00:29:28.148Z,1.93
2022-08-04T00:31:57.873Z,1.90
2022-08-04T00:34:31.269Z,2.00
2022-08-04T00:36:58.489Z,2.03
2022-08-04T00:39:26.407Z,1.97
2022-08-04T00:42:20.844Z,2.07
2022-08-04T00:45:17.425Z,2.27
2022-08-04T00:48:24.320Z,2.00
2022-08-04T00:51:46.806Z,2.20
2022-08-04T00:54:37.233Z,1.70
2022-08-04T00:57:34.617Z,2.50
2022-08-04T01:00:12.596Z,2.27
2022-08-04T01:03:08.877Z,2.30
2022-08-04T01:06:11.470Z,2.13
2022-08-04T01:08:43.982Z,2.00
2022-08-04T01:11:17.057Z,2.20
2022-08-04T01:13:58.922Z,2.20
2022-08-04T01:16:27.555Z,2.10
2022-08-04T01:19:03.611Z,2.33
2022-08-04T01:21:30.527Z,2.20
2022-08-04T01:24:05.790Z,2.70
2022-08-04T01:26:57.294Z,2.27
2022-08-04T01:29:30.476Z,2.20
2022-08-04T01:32:26.006Z,2.23
2022-08-04T01:35:46.982Z,2.40
2022-08-04T01:38:34.255Z,1.70
2022-08-04T01:41:05.605Z,1.87
2022-08-04T01:43:40.253Z,2.40
2022-08-04T01:46:10.238Z,2.30
2022-08-04T01:48:38.749Z,1.90
2022-08-04T01:51:08.604Z,2.10
2022-08-04T01:53:41.628Z,2.30
2022-08-04T01:56:11.671Z,2.63
2022-08-04T01:58:40.222Z,2.10
2022-08-04T02:01:09.516Z,2.20
2022-08-04T02:04:18.174Z,2.70
2022-08-04T02:06:43.310Z,2.23
2022-08-04T02:09:24.465Z,1.93
2022-08-04T02:12:16.223Z,2.30
2022-08-04T02:15:08.781Z,2.40
2022-08-04T02:18:04.088Z,2.23
2022-08-04T02:20:38.490Z,2.23
2022-08-04T02:23:10.670Z,2.27
2022-08-04T02:25:41.062Z,2.20
2022-08-04T02:28:17.682Z,2.30
2022-08-04T02:30:56.649Z,1.77
2022-08-04T02:33:35.786Z,2.23
2022-08-04T02:36:05.325Z,2.27
2022-08-04T02:38:56.388Z,2.60
2022-08-04T02:41:25.672Z,2.27
2022-08-04T02:43:55.783Z,2.23
2022-08-04T02:46:23.141Z,2.17
2022-08-04T02:48:53.119Z,2.40
2022-08-04T02:51:32.110Z,2.40
2022-08-04T02:54:00.261Z,2.20
2022-08-04T02:56:31.425Z,2.10
2022-08-04T02:59:04.978Z,2.20
2022-08-04T03:01:32.146Z,2.30
2022-08-04T03:04:24.669Z,2.20
2022-08-04T03:07:14.366Z,2.40
2022-08-04T03:09:50.123Z,2.13
2022-08-04T03:12:38.293Z,1.93
2022-08-04T03:15:36.262Z,2.27
2022-08-04T03:18:22.998Z,2.13
2022-08-04T03:21:20.515Z,2.20
2022-08-04T03:24:14.931Z,2.27
2022-08-04T03:27:01.986Z,2.10
2022-08-04T03:29:37.063Z,2.40
2022-08-04T03:32:44.278Z,2.43
2022-08-04T03:35:41.470Z,2.20
2022-08-04T03:38:38.889Z,2.23
2022-08-04T03:41:59.894Z,2.60
2022-08-04T03:44:57.399Z,2.40
2022-08-04T03:47:45.283Z,2.10
2022-08-04T03:50:24.916Z,2.30
2022-08-04T03:53:10.190Z,2.27
2022-08-04T03:56:15.121Z,2.60
2022-08-04T03:58:48.259Z,2.40
2022-08-04T04:02:01.154Z,2.20
2022-08-04T04:04:35.447Z,2.90
2022-08-04T04:07:27.223Z,2.73
2022-08-04T04:10:16.566Z,2.47
2022-08-04T04:13:06.872Z,2.33
2022-08-04T04:15:47.028Z,2.20
2022-08-04T04:18:54.698Z,2.60
2022-08-04T04:21:36.905Z,2.53
2022-08-04T04:24:33.758Z,2.30
2022-08-04T04:27:07.129Z,2.20
2022-08-04T04:29:55.114Z,2.27
2022-08-04T04:32:29.442Z,2.50
2022-08-04T04:35:18.023Z,2.57
2022-08-04T04:38:21.997Z,2.30
2022-08-04T04:41:20.270Z,2.37
2022-08-04T04:44:06.119Z,2.17
2022-08-04T04:47:14.750Z,2.30
2022-08-04T04:49:53.824Z,2.80
2022-08-04T04:52:29.545Z,2.47
2022-08-04T04:55:23.222Z,2.47
2022-08-04T04:57:56.504Z,2.50
2022-08-04T05:00:26.615Z,2.50
2022-08-04T05:03:22.486Z,2.60
2022-08-04T05:06:15.075Z,2.33
2022-08-04T05:09:12.545Z,2.50
2022-08-04T05:12:06.101Z,2.80
2022-08-04T05:14:53.484Z,2.43
2022-08-04T05:17:33.689Z,2.50
2022-08-04T05:20:34.964Z,2.67
2022-08-04T05:23:21.451Z,2.20
2022-08-04T05:26:16.888Z,3.10
2022-08-04T05:28:51.831Z,2.67
2022-08-04T05:31:34.697Z,2.73
2022-08-04T05:34:09.431Z,3.00
2022-08-04T05:36:46.321Z,3.03
2022-08-04T05:39:20.089Z,2.93
2022-08-04T05:41:55.801Z,2.60
2022-08-04T05:44:28.101Z,2.83
2022-08-04T05:46:59.085Z,3.10
2022-08-04T05:49:28.182Z,2.80
2022-08-04T05:51:58.251Z,2.70
2022-08-04T05:54:25.960Z,3.10
2022-08-04T05:56:54.937Z,3.03
2022-08-04T05:59:25.754Z,2.93
2022-08-04T06:01:57.483Z,3.20
2022-08-04T06:04:38.294Z,3.00
2022-08-04T06:07:06.241Z,3.00
2022-08-04T06:09:33.172Z,3.17
2022-08-04T06:12:04.391Z,2.83
2022-08-04T06:14:43.856Z,3.10
2022-08-04T06:18:33.309Z,3.13
2022-08-04T06:20:18.019Z,2.90
2022-08-04T06:22:52.407Z,2.67
2022-08-04T06:25:23.632Z,2.90
2022-08-04T06:27:51.759Z,3.00
2022-08-04T06:30:20.188Z,3.10
2022-08-04T06:33:03.420Z,3.30
2022-08-04T06:35:33.812Z,2.93
2022-08-04T06:38:02.405Z,3.40
2022-08-04T06:40:33.204Z,3.10
2022-08-04T06:43:02.967Z,3.40
2022-08-04T06:45:31.053Z,3.40
2022-08-04T06:47:59.893Z,3.10
2022-08-04T06:51:30.580Z,2.77
2022-08-04T06:53:15.735Z,3.17
2022-08-04T06:55:47.339Z,3.00
2022-08-04T06:58:15.241Z,3.43
2022-08-04T07:00:44.599Z,3.30
2022-08-04T07:03:12.100Z,3.43
2022-08-04T07:05:41.013Z,3.30
2022-08-04T07:08:11.078Z,3.07
2022-08-04T07:10:38.520Z,3.10
2022-08-04T07:13:07.344Z,3.13
2022-08-04T07:15:35.696Z,3.10
2022-08-04T07:18:04.695Z,3.10
2022-08-04T07:20:35.874Z,3.03
2022-08-04T07:23:07.486Z,3.53
2022-08-04T07:25:57.216Z,3.30
2022-08-04T07:28:25.558Z,2.83
2022-08-04T07:30:53.977Z,2.87
2022-08-04T07:33:21.808Z,3.10
2022-08-04T07:36:05.228Z,3.30
2022-08-04T07:38:48.721Z,3.00
2022-08-04T07:41:43.276Z,2.80
2022-08-04T07:44:14.782Z,2.93
2022-08-04T07:46:43.070Z,2.90
2022-08-04T07:49:10.093Z,3.17
2022-08-04T07:51:37.629Z,2.90
2022-08-04T07:54:10.750Z,2.90
2022-08-04T07:56:39.495Z,3.65
2022-08-04T07:59:06.969Z,3.45
2022-08-04T08:01:36.253Z,2.85
2022-08-04T08:04:05.701Z,3.35
2022-08-04T08:06:38.641Z,2.65
2022-08-04T08:09:14.711Z,3.03
2022-08-04T08:12:35.879Z,2.92
2022-08-04T08:14:37.009Z,2.78
2022-08-04T08:17:04.686Z,3.03
2022-08-04T08:19:33.079Z,2.90
2022-08-04T08:22:01.445Z,2.60
2022-08-04T08:24:36.276Z,2.65
2022-08-04T08:27:04.825Z,2.97
2022-08-04T08:29:34.317Z,2.63
2022-08-04T08:32:07.738Z,2.53
2022-08-04T08:34:35.943Z,2.45
2022-08-04T08:37:25.354Z,2.60
2022-08-04T08:40:01.495Z,2.63
2022-08-04T08:44:00.250Z,2.70
2022-08-04T08:46:48.471Z,2.10
2022-08-04T08:50:02.228Z,2.30
2022-08-04T08:53:04.352Z,2.15
2022-08-04T08:56:02.153Z,2.30
2022-08-04T08:58:53.646Z,2.10
2022-08-04T09:01:50.579Z,2.15
2022-08-04T09:04:41.650Z,1.98
2022-08-04T09:07:31.831Z,1.70
2022-08-04T09:10:04.422Z,1.67
2022-08-04T09:12:55.167Z,1.60
2022-08-04T09:15:36.316Z,1.60
2022-08-04T09:18:21.871Z,1.50
2022-08-04T09:21:04.109Z,1.50
2022-08-04T09:23:39.483Z,1.35
2022-08-04T09:26:35.715Z,1.48
2022-08-04T09:29:31.450Z,1.40
2022-08-04T09:32:16.358Z,1.35
2022-08-04T09:35:08.580Z,1.58
2022-08-04T09:38:00.323Z,1.40
2022-08-04T09:40:53.752Z,1.63
2022-08-04T09:44:43.072Z,1.30
2022-08-04T09:46:46.645Z,1.30
2022-08-04T09:49:19.486Z,1.10
2022-08-04T09:52:01.146Z,1.10
2022-08-04T09:54:45.317Z,1.20
2022-08-04T09:57:36.610Z,1.17
2022-08-04T10:00:17.676Z,1.17
2022-08-04T10:02:53.880Z,1.00
2022-08-04T10:05:33.323Z,1.10
2022-08-04T10:08:18.517Z,1.00
2022-08-04T10:11:02.762Z,1.17
2022-08-04T10:13:48.783Z,1.10
2022-08-04T10:16:35.827Z,1.20
2022-08-04T10:19:37.998Z,1.10
2022-08-04T10:22:34.527Z,0.85
2022-08-04T10:26:07.779Z,0.80
2022-08-04T10:28:49.892Z,1.20
2022-08-04T10:31:24.761Z,1.10
2022-08-04T10:34:11.491Z,1.10
2022-08-04T10:37:18.993Z,1.13
2022-08-04T10:40:16.774Z,1.10
2022-08-04T10:42:56.949Z,1.00
2022-08-04T10:45:34.615Z,1.00
2022-08-04T10:48:48.841Z,1.20
2022-08-04T10:51:58.380Z,1.00
2022-08-04T10:54:59.795Z,1.10
2022-08-04T10:57:34.537Z,1.25
2022-08-04T11:00:07.162Z,1.00
2022-08-04T11:02:46.789Z,1.00
2022-08-04T11:05:47.686Z,1.23
2022-08-04T11:08:33.393Z,1.00
2022-08-04T11:11:10.023Z,1.10
2022-08-04T11:13:47.734Z,1.00
2022-08-04T11:16:20.965Z,0.90
2022-08-04T11:19:18.264Z,1.08
2022-08-04T11:21:53.212Z,1.00
2022-08-04T11:24:44.620Z,1.05
2022-08-04T11:27:18.288Z,1.08
2022-08-04T11:30:04.873Z,1.10
2022-08-04T11:32:54.604Z,1.20
2022-08-04T11:35:50.621Z,1.20
2022-08-04T11:38:58.317Z,0.93
2022-08-04T11:41:43.756Z,0.95
2022-08-04T11:44:20.132Z,1.15
2022-08-04T11:46:53.971Z,1.20
2022-08-04T11:49:56.718Z,1.00
2022-08-04T11:52:26.872Z,1.27
2022-08-04T11:54:55.768Z,1.00
2022-08-04T11:57:35.186Z,1.10
2022-08-04T12:00:07.173Z,1.05
2022-08-04T12:02:56.078Z,0.90
2022-08-04T12:05:37.102Z,1.02
2022-08-04T12:09:01.465Z,1.00
2022-08-04T12:11:38.107Z,1.00
2022-08-04T12:14:19.749Z,1.08
2022-08-04T12:16:58.148Z,1.02
2022-08-04T12:19:38.860Z,0.90
2022-08-04T12:22:25.121Z,1.00
2022-08-04T12:25:03.835Z,0.82
2022-08-04T12:27:40.042Z,0.90
2022-08-04T12:30:59.731Z,1.00
2022-08-04T12:33:21.385Z,0.90
2022-08-04T12:36:23.734Z,1.00
2022-08-04T12:39:01.737Z,1.00
2022-08-04T12:41:36.980Z,1.25
2022-08-04T12:44:07.930Z,0.75
2022-08-04T12:46:55.657Z,1.00
2022-08-04T12:49:59.977Z,0.80
2022-08-04T12:52:39.725Z,0.80
2022-08-04T12:55:16.356Z,0.77
2022-08-04T12:57:43.982Z,0.90
2022-08-04T13:00:11.455Z,1.00
2022-08-04T13:02:42.812Z,0.90
2022-08-04T13:05:16.925Z,1.13
2022-08-04T13:07:50.819Z,1.20
2022-08-04T13:10:21.898Z,1.13
2022-08-04T13:13:00.357Z,0.93
2022-08-04T13:15:28.464Z,1.00
2022-08-04T13:18:14.903Z,1.08
2022-08-04T13:20:44.135Z,0.93
2022-08-04T13:23:21.528Z,1.02
2022-08-04T13:26:42.925Z,1.10
2022-08-04T13:28:48.035Z,1.20
2022-08-04T13:31:22.014Z,1.17
2022-08-04T13:33:51.317Z,1.10
2022-08-04T13:36:18.879Z,1.30
2022-08-04T13:38:51.581Z,1.00
2022-08-04T13:41:20.405Z,1.10
2022-08-04T13:44:18.895Z,1.00
2022-08-04T13:47:22.626Z,1.10
2022-08-04T13:50:11.745Z,0.80
2022-08-04T13:52:41.211Z,0.90
2022-08-04T13:55:17.823Z,0.95
2022-08-04T13:57:47.296Z,0.90
2022-08-04T14:00:16.778Z,1.10
2022-08-04T14:03:19.163Z,0.93
2022-08-04T14:06:29.108Z,1.13
2022-08-04T14:09:02.267Z,0.90
2022-08-04T14:12:07.145Z,1.00
2022-08-04T14:14:29.907Z,0.80
2022-08-04T14:17:01.011Z,1.10
2022-08-04T14:19:50.261Z,0.77
2022-08-04T14:22:26.241Z,1.00
2022-08-04T14:25:15.326Z,1.20
2022-08-04T14:27:50.870Z,0.93
2022-08-04T14:30:36.475Z,1.10
2022-08-04T14:34:03.606Z,0.90
2022-08-04T14:36:01.481Z,1.00
2022-08-04T14:38:44.999Z,1.90
2022-08-04T14:41:13.092Z,1.30
2022-08-04T14:43:54.434Z,1.02
2022-08-04T14:46:23.488Z,1.10
2022-08-04T14:49:10.269Z,1.10
2022-08-04T14:51:45.162Z,1.10
2022-08-04T14:54:31.598Z,1.10
2022-08-04T14:57:02.898Z,0.90
2022-08-04T14:59:59.444Z,1.00
2022-08-04T15:02:30.275Z,1.00
2022-08-04T15:04:58.607Z,1.20
2022-08-04T15:07:26.814Z,1.50
2022-08-04T15:09:54.524Z,1.10
2022-08-04T15:12:21.970Z,1.30
2022-08-04T15:14:49.240Z,1.05
2022-08-04T15:17:29.767Z,1.20
2022-08-04T15:19:58.284Z,1.13
2022-08-04T15:22:25.238Z,1.30
2022-08-04T15:24:54.847Z,1.13
2022-08-04T15:27:27.138Z,1.17
2022-08-04T15:30:00.556Z,1.20
2022-08-04T15:32:34.448Z,1.13
2022-08-04T15:35:08.881Z,1.45
2022-08-04T15:37:59.043Z,1.40
2022-08-04T15:40:33.533Z,1.15
2022-08-04T15:43:17.983Z,1.40
2022-08-04T15:46:37.225Z,1.58
2022-08-04T15:48:39.939Z,1.70
2022-08-04T15:51:15.200Z,1.45
2022-08-04T15:54:02.452Z,1.52
2022-08-04T15:56:30.995Z,1.45
2022-08-04T15:58:58.636Z,1.73
2022-08-04T16:01:27.448Z,1.35
2022-08-04T16:03:59.820Z,1.73
2022-08-04T16:06:29.480Z,1.42
2022-08-04T16:09:02.031Z,1.50
2022-08-04T16:11:31.647Z,1.40
2022-08-04T16:13:58.636Z,1.50
2022-08-04T16:16:41.093Z,1.70
2022-08-04T16:19:20.368Z,1.65
2022-08-04T16:21:52.080Z,1.55
2022-08-04T16:24:20.120Z,1.45
2022-08-04T16:26:54.511Z,1.60
2022-08-04T16:29:22.949Z,2.08
2022-08-04T16:32:05.524Z,2.03
2022-08-04T16:34:50.348Z,1.70
2022-08-04T16:37:22.157Z,1.55
2022-08-04T16:39:51.180Z,1.73
2022-08-04T16:42:27.887Z,1.65
2022-08-04T16:45:11.464Z,1.60
2022-08-04T16:47:47.498Z,1.58
2022-08-04T16:50:19.509Z,1.77
2022-08-04T16:52:54.963Z,1.80
2022-08-04T16:55:26.927Z,1.90
2022-08-04T16:57:56.496Z,1.77
2022-08-04T17:00:32.481Z,1.77
2022-08-04T17:03:03.531Z,1.90
2022-08-04T17:05:38.944Z,1.80
2022-08-04T17:10:56.865Z,2.10
2022-08-04T17:14:01.957Z,1.80
2022-08-04T17:16:17.809Z,1.83
2022-08-04T17:18:47.837Z,1.70
2022-08-04T17:21:22.067Z,1.80
2022-08-04T17:24:13.466Z,2.40
2022-08-04T17:26:45.390Z,1.80
2022-08-04T17:29:20.078Z,1.58
2022-08-04T17:31:46.982Z,1.42
2022-08-04T17:34:19.516Z,1.60
2022-08-04T17:36:48.099Z,1.40
2022-08-04T17:39:21.687Z,1.40
2022-08-04T17:41:49.574Z,1.88
2022-08-04T17:44:17.660Z,1.40
2022-08-04T17:46:48.114Z,1.40
2022-08-04T17:49:18.257Z,1.63
2022-08-04T17:52:05.483Z,1.40
2022-08-04T17:54:37.367Z,1.70
2022-08-04T17:57:19.553Z,1.55
2022-08-04T17:59:56.389Z,1.45
2022-08-04T18:02:35.079Z,1.60
2022-08-04T18:08:40.082Z,1.30
2022-08-04T18:10:52.253Z,1.52
2022-08-04T18:13:27.035Z,1.23
2022-08-04T18:16:04.944Z,1.35
2022-08-04T18:18:31.983Z,1.45
2022-08-04T18:21:03.504Z,1.48
2022-08-04T18:23:33.059Z,1.38
2022-08-04T18:26:02.200Z,1.30
2022-08-04T18:28:31.317Z,1.33
2022-08-04T18:31:01.507Z,1.20
2022-08-04T18:33:40.547Z,1.70
2022-08-04T18:36:32.925Z,1.60
2022-08-04T18:39:12.687Z,1.27
2022-08-04T18:42:01.325Z,1.58
2022-08-04T18:44:32.046Z,1.23
2022-08-04T18:47:22.311Z,1.40
2022-08-04T18:51:00.442Z,1.20
2022-08-04T18:52:33.918Z,1.30
2022-08-04T18:55:01.893Z,1.33
2022-08-04T18:57:58.710Z,1.55
2022-08-04T19:00:19.969Z,1.50
2022-08-04T19:02:47.674Z,1.73
2022-08-04T19:05:17.359Z,1.33
2022-08-04T19:08:02.330Z,1.55
2022-08-04T19:10:31.747Z,1.40
2022-08-04T19:12:59.430Z,1.67
2022-08-04T19:15:34.737Z,1.48
2022-08-04T19:18:02.464Z,1.17
2022-08-04T19:20:33.879Z,1.38
2022-08-04T19:24:10.609Z,1.65
2022-08-04T19:26:01.958Z,1.42
2022-08-04T19:28:37.628Z,1.23
2022-08-04T19:31:10.019Z,1.60
2022-08-04T19:33:59.312Z,1.83
2022-08-04T19:36:28.465Z,1.15
2022-08-04T19:38:57.762Z,1.65
2022-08-04T19:41:26.648Z,1.58
2022-08-04T19:43:54.366Z,1.38
2022-08-04T19:49:08.491Z,1.67
2022-08-04T19:51:56.422Z,1.65
2022-08-04T19:54:23.916Z,1.85
2022-08-04T19:56:54.416Z,1.70
2022-08-04T19:59:22.262Z,1.40
2022-08-04T20:01:49.497Z,1.50
2022-08-04T20:04:16.671Z,1.67
2022-08-04T20:06:43.704Z,1.55
2022-08-04T20:09:25.320Z,1.67
2022-08-04T20:11:55.332Z,1.40
2022-08-04T20:14:32.066Z,1.60
2022-08-04T20:17:10.213Z,1.50
2022-08-04T20:19:38.765Z,1.92
2022-08-04T20:22:06.045Z,1.88
2022-08-04T20:25:00.950Z,1.35
2022-08-04T20:27:59.333Z,1.58
2022-08-04T20:30:28.512Z,1.63
2022-08-04T20:32:55.582Z,1.30
2022-08-04T20:35:26.753Z,1.55
2022-08-04T20:38:00.339Z,1.90
2022-08-04T20:40:29.824Z,1.73
2022-08-04T20:42:59.598Z,1.95
2022-08-04T20:45:55.889Z,1.55
2022-08-04T20:48:14.332Z,1.90
2022-08-04T20:50:42.550Z,1.52
2022-08-04T20:53:16.815Z,1.88
2022-08-04T20:55:54.829Z,1.70
2022-08-04T20:58:27.411Z,1.60
2022-08-04T21:00:55.450Z,1.63
2022-08-04T21:03:49.418Z,1.70
2022-08-04T21:06:09.453Z,1.60
2022-08-04T21:08:37.142Z,1.73
2022-08-04T21:11:06.732Z,1.88
2022-08-04T21:13:52.262Z,1.85
2022-08-04T21:16:55.120Z,1.75
2022-08-04T21:19:13.088Z,1.70
2022-08-04T21:21:41.537Z,1.57
2022-08-04T21:24:09.662Z,1.85
2022-08-04T21:26:37.564Z,2.20
2022-08-04T21:29:04.765Z,1.70
2022-08-04T21:31:36.839Z,2.05
2022-08-04T21:34:17.384Z,1.73
2022-08-04T21:37:04.384Z,1.50
2022-08-04T21:39:32.526Z,2.22
2022-08-04T21:44:46.534Z,1.98
2022-08-04T21:47:19.375Z,1.90
2022-08-04T21:49:55.915Z,2.27
2022-08-04T21:52:24.419Z,1.90
2022-08-04T21:54:54.778Z,1.90
2022-08-04T21:57:24.922Z,2.03
2022-08-04T21:59:52.515Z,1.90
2022-08-04T22:02:19.631Z,2.30
2022-08-04T22:04:48.164Z,2.13
2022-08-04T22:07:16.712Z,2.00
2022-08-04T22:10:02.306Z,2.10
2022-08-04T22:12:30.434Z,1.97
2022-08-04T22:14:59.684Z,2.00
2022-08-04T22:17:29.407Z,2.03
2022-08-04T22:20:03.208Z,2.30
2022-08-04T22:22:33.786Z,2.17
2022-08-04T22:25:06.294Z,2.17
2022-08-04T22:28:00.889Z,2.10
2022-08-04T22:30:33.128Z,1.93
2022-08-04T22:33:07.750Z,1.80
2022-08-04T22:35:43.743Z,2.03
2022-08-04T22:38:26.884Z,2.50
2022-08-04T22:41:00.926Z,2.10
2022-08-04T22:43:32.826Z,2.37
2022-08-04T22:46:03.904Z,2.60
2022-08-04T22:48:37.726Z,2.60
2022-08-04T22:51:06.981Z,2.80
2022-08-04T22:53:35.283Z,3.17
2022-08-04T22:56:09.846Z,2.63
2022-08-04T22:58:44.783Z,2.63
2022-08-04T23:01:15.080Z,3.03
2022-08-04T23:03:55.205Z,2.57
2022-08-04T23:06:25.340Z,2.47
2022-08-04T23:08:52.897Z,2.97
2022-08-04T23:11:20.203Z,2.93
2022-08-04T23:13:48.951Z,3.00
2022-08-04T23:16:16.964Z,2.50
2022-08-04T23:18:45.214Z,2.47
2022-08-04T23:21:15.467Z,2.20
2022-08-04T23:23:45.479Z,2.50
2022-08-04T23:26:27.682Z,2.87
2022-08-04T23:28:55.758Z,2.20
2022-08-04T23:31:22.780Z,2.33
2022-08-04T23:33:51.691Z,2.60
2022-08-04T23:36:29.571Z,2.60
2022-08-04T23:39:04.242Z,2.47
2022-08-04T23:41:51.050Z,2.77
2022-08-04T23:44:24.652Z,2.40
2022-08-04T23:47:00.916Z,2.60
2022-08-04T23:49:43.848Z,2.37
2022-08-04T23:52:28.222Z,2.50
2022-08-04T23:55:01.444Z,2.67
2022-08-04T23:57:31.026Z,2.50
2022-08-04T23:59:58.758Z,3.60
